Terminal Aerodrome Forecast
Issued by NWS

Home | Current Version | Previous Version | Text Only | Print | Product List | Glossary On
Versions: 1 2 3 4 5 6 7 8 9 10 11 12
087
FTPA31 PHFO 182338
TAFHNY
TAF
PHNY 182338Z 1900/1924 31008KT P6SM SCT025 SCT035
     FM190600 36010KT P6SM VCSH SCT025 BKN035
     FM192000 35014KT P6SM SCT025=

USA.gov is the U.S. government's official web portal to all federal, state and local government web resources and services.